Terminal Aerodrome Forecast
Issued by NWS Jackson, MS

Home | Current Version | Previous Version | Text Only | Print | Product List | Glossary On
Versions: 1 2 3 4 5 6 7 8 9 10 11 12
000
FTUS44 KJAN 212324
TAFGWO
TAF
KGWO 212324Z 2200/2224 17010KT P6SM SCT050 SCT100
     FM220700 17014G23KT P6SM SCT030 BKN050
     FM221100 17014G23KT P6SM -RA OVC020
     FM221600 21015G23KT P6SM -RA OVC050=

USA.gov is the U.S. government's official web portal to all federal, state and local government web resources and services.